sensor_id;sensor_type;location;lat;lon;timestamp;pressure;altitude;pressure_sealevel;temperature;humidity
29569;BME280;16501;51.462;14.346;2023-02-18T00:00:18;100235.91;;;7.59;77.13
29569;BME280;16501;51.462;14.346;2023-02-18T00:02:44;100240.06;;;7.54;74.89
29569;BME280;16501;51.462;14.346;2023-02-18T00:05:12;100214.44;;;7.46;74.85
29569;BME280;16501;51.462;14.346;2023-02-18T00:07:39;100245.06;;;7.59;73.61
29569;BME280;16501;51.462;14.346;2023-02-18T00:10:09;100228.78;;;7.58;73.85
29569;BME280;16501;51.462;14.346;2023-02-18T00:12:35;100205.69;;;7.35;72.29
29569;BME280;16501;51.462;14.346;2023-02-18T00:15:00;100240.97;;;7.51;71.00
29569;BME280;16501;51.462;14.346;2023-02-18T00:17:27;100247.34;;;7.51;71.02
29569;BME280;16501;51.462;14.346;2023-02-18T00:19:53;100238.78;;;7.46;69.06
29569;BME280;16501;51.462;14.346;2023-02-18T00:22:19;100239.41;;;7.50;69.17
29569;BME280;16501;51.462;14.346;2023-02-18T00:24:45;100234.84;;;7.43;68.49
29569;BME280;16501;51.462;14.346;2023-02-18T00:27:10;100234.22;;;7.39;67.80
29569;BME280;16501;51.462;14.346;2023-02-18T00:29:35;100231.34;;;7.30;68.42
29569;BME280;16501;51.462;14.346;2023-02-18T00:32:01;100222.28;;;7.39;67.70
29569;BME280;16501;51.462;14.346;2023-02-18T00:34:27;100244.59;;;7.39;67.64
29569;BME280;16501;51.462;14.346;2023-02-18T00:36:52;100255.97;;;7.31;67.46
29569;BME280;16501;51.462;14.346;2023-02-18T00:39:17;100257.22;;;7.30;65.99
29569;BME280;16501;51.462;14.346;2023-02-18T00:41:42;100209.75;;;7.08;66.08
29569;BME280;16501;51.462;14.346;2023-02-18T00:44:09;100238.84;;;7.20;65.78
29569;BME280;16501;51.462;14.346;2023-02-18T00:46:35;100267.38;;;7.24;65.58
29569;BME280;16501;51.462;14.346;2023-02-18T00:49:02;100264.25;;;7.22;65.47
29569;BME280;16501;51.462;14.346;2023-02-18T00:51:28;100268.31;;;7.21;65.83
29569;BME280;16501;51.462;14.346;2023-02-18T00:53:55;100274.78;;;7.18;65.49
29569;BME280;16501;51.462;14.346;2023-02-18T00:56:20;100244.91;;;7.06;65.15
29569;BME280;16501;51.462;14.346;2023-02-18T00:58:46;100261.50;;;7.09;64.90
29569;BME280;16501;51.462;14.346;2023-02-18T01:01:11;100247.72;;;6.80;65.23
29569;BME280;16501;51.462;14.346;2023-02-18T01:03:39;100066.94;;;5.70;65.61
29569;BME280;16501;51.462;14.346;2023-02-18T01:06:12;100266.28;;;7.09;66.04
29569;BME280;16501;51.462;14.346;2023-02-18T01:08:39;100264.97;;;7.01;66.79
29569;BME280;16501;51.462;14.346;2023-02-18T01:11:06;100271.44;;;6.97;66.35
29569;BME280;16501;51.462;14.346;2023-02-18T01:13:32;100254.75;;;6.72;66.41
29569;BME280;16501;51.462;14.346;2023-02-18T01:15:57;100264.31;;;6.96;66.39
29569;BME280;16501;51.462;14.346;2023-02-18T01:18:24;100255.53;;;6.85;67.43
29569;BME280;16501;51.462;14.346;2023-02-18T01:20:51;100269.56;;;6.94;67.33
29569;BME280;16501;51.462;14.346;2023-02-18T01:23:16;100262.31;;;6.84;67.21
29569;BME280;16501;51.462;14.346;2023-02-18T01:25:42;100268.69;;;6.85;67.47
29569;BME280;16501;51.462;14.346;2023-02-18T01:28:11;100260.88;;;6.79;67.66
29569;BME280;16501;51.462;14.346;2023-02-18T01:30:37;100252.28;;;6.74;67.39
29569;BME280;16501;51.462;14.346;2023-02-18T01:33:03;100254.09;;;6.68;67.71
29569;BME280;16501;51.462;14.346;2023-02-18T01:35:29;100267.47;;;6.73;67.43
29569;BME280;16501;51.462;14.346;2023-02-18T01:37:56;100272.16;;;6.76;67.96
29569;BME280;16501;51.462;14.346;2023-02-18T01:40:24;100277.91;;;6.69;66.96
29569;BME280;16501;51.462;14.346;2023-02-18T01:42:50;100261.88;;;6.60;68.41
29569;BME280;16501;51.462;14.346;2023-02-18T01:48:28;100276.38;;;6.68;68.36
29569;BME280;16501;51.462;14.346;2023-02-18T01:51:27;100282.63;;;6.59;68.60
29569;BME280;16501;51.462;14.346;2023-02-18T01:54:02;100240.84;;;6.46;68.87
29569;BME280;16501;51.462;14.346;2023-02-18T01:56:47;100264.75;;;6.56;68.92
29569;BME280;16501;51.462;14.346;2023-02-18T01:59:16;100245.94;;;6.35;69.69
29569;BME280;16501;51.462;14.346;2023-02-18T02:01:43;100247.03;;;6.37;70.17
29569;BME280;16501;51.462;14.346;2023-02-18T02:04:10;100266.56;;;6.50;70.73
29569;BME280;16501;51.462;14.346;2023-02-18T02:06:36;100233.59;;;6.36;70.77
29569;BME280;16501;51.462;14.346;2023-02-18T02:09:04;100261.09;;;6.47;70.99
29569;BME280;16501;51.462;14.346;2023-02-18T02:14:57;100258.09;;;6.41;71.14
29569;BME280;16501;51.462;14.346;2023-02-18T02:21:00;100245.94;;;6.35;70.98
29569;BME280;16501;51.462;14.346;2023-02-18T02:26:46;100263.84;;;6.34;71.73
29569;BME280;16501;51.462;14.346;2023-02-18T02:32:35;100257.84;;;6.22;70.83
29569;BME280;16501;51.462;14.346;2023-02-18T02:35:23;100272.97;;;6.21;70.79
29569;BME280;16501;51.462;14.346;2023-02-18T02:38:06;100229.25;;;5.93;71.17
29569;BME280;16501;51.462;14.346;2023-02-18T02:51:27;100273.88;;;6.18;70.83
29569;BME280;16501;51.462;14.346;2023-02-18T02:53:54;100271.16;;;6.02;71.56
29569;BME280;16501;51.462;14.346;2023-02-18T02:56:23;100273.16;;;6.01;70.86
29569;BME280;16501;51.462;14.346;2023-02-18T02:59:04;100274.97;;;6.08;71.50
29569;BME280;16501;51.462;14.346;2023-02-18T03:05:02;100295.66;;;6.07;70.69
29569;BME280;16501;51.462;14.346;2023-02-18T03:07:52;100285.50;;;6.00;71.04
29569;BME280;16501;51.462;14.346;2023-02-18T03:10:38;100281.06;;;6.03;71.83
29569;BME280;16501;51.462;14.346;2023-02-18T03:13:36;100286.22;;;6.04;71.63
29569;BME280;16501;51.462;14.346;2023-02-18T03:16:25;100288.56;;;6.06;72.20
29569;BME280;16501;51.462;14.346;2023-02-18T03:19:13;100280.75;;;6.01;71.38
29569;BME280;16501;51.462;14.346;2023-02-18T03:21:46;100275.84;;;6.05;72.10
29569;BME280;16501;51.462;14.346;2023-02-18T03:24:23;100273.72;;;5.96;71.81
29569;BME280;16501;51.462;14.346;2023-02-18T03:27:05;100261.59;;;5.86;71.63
29569;BME280;16501;51.462;14.346;2023-02-18T03:29:32;100269.94;;;6.03;72.01
29569;BME280;16501;51.462;14.346;2023-02-18T03:32:02;100287.75;;;6.06;72.13
29569;BME280;16501;51.462;14.346;2023-02-18T03:34:32;100296.00;;;6.09;71.85
29569;BME280;16501;51.462;14.346;2023-02-18T03:37:00;100295.00;;;6.03;71.63
29569;BME280;16501;51.462;14.346;2023-02-18T03:39:28;100280.03;;;5.97;71.97
29569;BME280;16501;51.462;14.346;2023-02-18T03:41:54;100298.44;;;6.07;71.29
29569;BME280;16501;51.462;14.346;2023-02-18T03:44:20;100309.59;;;6.07;71.69
29569;BME280;16501;51.462;14.346;2023-02-18T03:46:45;100244.88;;;5.74;71.32
29569;BME280;16501;51.462;14.346;2023-02-18T03:49:13;100284.06;;;5.96;71.17
29569;BME280;16501;51.462;14.346;2023-02-18T03:51:39;100309.91;;;6.09;70.67
29569;BME280;16501;51.462;14.346;2023-02-18T03:54:05;100292.75;;;5.98;70.61
29569;BME280;16501;51.462;14.346;2023-02-18T03:56:30;100313.94;;;6.08;70.38
29569;BME280;16501;51.462;14.346;2023-02-18T03:58:55;100258.03;;;5.73;70.95
29569;BME280;16501;51.462;14.346;2023-02-18T04:01:20;100309.47;;;6.11;70.69
29569;BME280;16501;51.462;14.346;2023-02-18T04:03:46;100304.00;;;6.07;70.41
29569;BME280;16501;51.462;14.346;2023-02-18T04:06:12;100279.34;;;5.93;70.27
29569;BME280;16501;51.462;14.346;2023-02-18T04:08:38;100280.94;;;5.77;70.08
29569;BME280;16501;51.462;14.346;2023-02-18T04:11:03;100315.28;;;6.16;70.19
29569;BME280;16501;51.462;14.346;2023-02-18T04:13:29;100308.16;;;6.15;70.45
29569;BME280;16501;51.462;14.346;2023-02-18T04:15:55;100300.47;;;6.07;70.26
29569;BME280;16501;51.462;14.346;2023-02-18T04:18:22;100295.88;;;6.00;70.42
29569;BME280;16501;51.462;14.346;2023-02-18T04:20:47;100309.81;;;6.13;70.24
29569;BME280;16501;51.462;14.346;2023-02-18T04:23:13;100314.16;;;6.14;70.04
29569;BME280;16501;51.462;14.346;2023-02-18T04:25:38;100296.44;;;6.08;70.03
29569;BME280;16501;51.462;14.346;2023-02-18T04:28:04;100254.25;;;5.80;70.07
29569;BME280;16501;51.462;14.346;2023-02-18T04:30:29;100316.19;;;6.13;69.67
29569;BME280;16501;51.462;14.346;2023-02-18T04:32:55;100304.94;;;6.17;70.44
29569;BME280;16501;51.462;14.346;2023-02-18T04:35:20;100296.16;;;6.18;70.02
29569;BME280;16501;51.462;14.346;2023-02-18T04:37:45;100268.69;;;6.04;69.62
29569;BME280;16501;51.462;14.346;2023-02-18T04:40:11;100246.34;;;5.78;69.79
29569;BME280;16501;51.462;14.346;2023-02-18T04:42:36;100300.47;;;6.19;69.98
29569;BME280;16501;51.462;14.346;2023-02-18T04:45:02;100293.38;;;6.18;70.29
29569;BME280;16501;51.462;14.346;2023-02-18T04:47:27;100303.69;;;6.18;69.96
29569;BME280;16501;51.462;14.346;2023-02-18T04:49:54;100297.38;;;6.17;70.31
29569;BME280;16501;51.462;14.346;2023-02-18T04:52:19;100294.78;;;6.10;70.27
29569;BME280;16501;51.462;14.346;2023-02-18T04:54:44;100293.38;;;6.18;69.96
29569;BME280;16501;51.462;14.346;2023-02-18T04:57:11;100307.63;;;6.20;69.96
29569;BME280;16501;51.462;14.346;2023-02-18T04:59:36;100296.16;;;6.18;69.78
29569;BME280;16501;51.462;14.346;2023-02-18T05:02:02;100317.63;;;6.18;69.56
29569;BME280;16501;51.462;14.346;2023-02-18T05:04:27;100290.59;;;6.18;68.97
29569;BME280;16501;51.462;14.346;2023-02-18T05:06:53;100300.47;;;6.19;69.75
29569;BME280;16501;51.462;14.346;2023-02-18T05:09:18;100296.16;;;6.18;69.72
29569;BME280;16501;51.462;14.346;2023-02-18T05:11:45;100286.56;;;6.19;69.49
29569;BME280;16501;51.462;14.346;2023-02-18T05:14:12;100277.44;;;6.19;70.22
29569;BME280;16501;51.462;14.346;2023-02-18T05:16:37;100258.91;;;5.99;70.53
29569;BME280;16501;51.462;14.346;2023-02-18T05:19:03;100277.78;;;6.21;70.09
29569;BME280;16501;51.462;14.346;2023-02-18T05:21:29;100254.56;;;5.98;71.25
29569;BME280;16501;51.462;14.346;2023-02-18T05:23:56;100276.50;;;6.09;71.05
29569;BME280;16501;51.462;14.346;2023-02-18T05:26:21;100271.44;;;6.20;71.11
29569;BME280;16501;51.462;14.346;2023-02-18T05:28:47;100215.75;;;5.78;71.91
29569;BME280;16501;51.462;14.346;2023-02-18T05:31:12;100274.53;;;6.22;72.30
29569;BME280;16501;51.462;14.346;2023-02-18T05:33:39;100277.31;;;6.22;72.88
29569;BME280;16501;51.462;14.346;2023-02-18T05:36:05;100280.13;;;6.22;73.02
29569;BME280;16501;51.462;14.346;2023-02-18T05:38:31;100280.88;;;6.23;73.19
29569;BME280;16501;51.462;14.346;2023-02-18T05:40:57;100268.31;;;6.18;73.81
29569;BME280;16501;51.462;14.346;2023-02-18T05:43:23;100281.69;;;6.23;74.39
29569;BME280;16501;51.462;14.346;2023-02-18T05:45:48;100276.13;;;6.23;75.00
29569;BME280;16501;51.462;14.346;2023-02-18T05:48:15;100269.31;;;6.25;75.21
29569;BME280;16501;51.462;14.346;2023-02-18T05:50:40;100284.38;;;6.27;75.55
29569;BME280;16501;51.462;14.346;2023-02-18T05:53:06;100254.56;;;6.11;76.33
29569;BME280;16501;51.462;14.346;2023-02-18T05:55:31;100283.56;;;6.27;76.01
29569;BME280;16501;51.462;14.346;2023-02-18T05:58:01;100249.00;;;6.11;76.54
29569;BME280;16501;51.462;14.346;2023-02-18T06:00:27;100235.91;;;5.95;76.98
29569;BME280;16501;51.462;14.346;2023-02-18T06:02:54;100289.47;;;6.29;77.20
29569;BME280;16501;51.462;14.346;2023-02-18T06:05:19;100284.47;;;6.23;78.43
29569;BME280;16501;51.462;14.346;2023-02-18T06:07:44;100291.03;;;6.30;77.86
29569;BME280;16501;51.462;14.346;2023-02-18T06:10:10;100230.56;;;5.88;78.49
29569;BME280;16501;51.462;14.346;2023-02-18T06:12:35;100293.38;;;6.31;79.30
29569;BME280;16501;51.462;14.346;2023-02-18T06:15:02;100273.34;;;6.23;79.48
29569;BME280;16501;51.462;14.346;2023-02-18T06:17:27;100291.38;;;6.32;80.28
29569;BME280;16501;51.462;14.346;2023-02-18T06:19:52;100271.09;;;6.18;80.01
29569;BME280;16501;51.462;14.346;2023-02-18T06:22:17;100289.28;;;6.36;80.46
29569;BME280;16501;51.462;14.346;2023-02-18T06:24:43;100282.78;;;6.26;80.62
29569;BME280;16501;51.462;14.346;2023-02-18T06:27:08;100282.47;;;6.37;80.75
29569;BME280;16501;51.462;14.346;2023-02-18T06:29:34;100273.34;;;6.36;80.82
29569;BME280;16501;51.462;14.346;2023-02-18T06:32:01;100246.38;;;6.20;80.93
29569;BME280;16501;51.462;14.346;2023-02-18T06:34:27;100247.69;;;6.29;81.65
29569;BME280;16501;51.462;14.346;2023-02-18T06:36:52;100259.63;;;6.42;81.76
29569;BME280;16501;51.462;14.346;2023-02-18T06:39:17;100254.06;;;6.42;81.91
29569;BME280;16501;51.462;14.346;2023-02-18T06:41:43;100266.44;;;6.41;81.94
29569;BME280;16501;51.462;14.346;2023-02-18T06:44:08;100247.84;;;6.38;82.08
29569;BME280;16501;51.462;14.346;2023-02-18T06:46:34;100250.97;;;6.40;82.52
29569;BME280;16501;51.462;14.346;2023-02-18T06:48:59;100235.00;;;6.28;81.97
29569;BME280;16501;51.462;14.346;2023-02-18T06:51:24;100214.50;;;6.21;81.87
29569;BME280;16501;51.462;14.346;2023-02-18T06:53:50;100228.22;;;6.29;81.52
29569;BME280;16501;51.462;14.346;2023-02-18T06:56:15;100240.91;;;6.42;81.52
29569;BME280;16501;51.462;14.346;2023-02-18T06:58:40;100224.56;;;6.45;82.41
29569;BME280;16501;51.462;14.346;2023-02-18T07:01:06;100205.03;;;6.32;82.55
29569;BME280;16501;51.462;14.346;2023-02-18T07:03:31;100233.47;;;6.52;82.64
29569;BME280;16501;51.462;14.346;2023-02-18T07:05:57;100207.81;;;6.32;82.40
29569;BME280;16501;51.462;14.346;2023-02-18T07:08:22;100228.66;;;6.53;83.24
29569;BME280;16501;51.462;14.346;2023-02-18T07:10:47;100196.47;;;6.26;83.07
29569;BME280;16501;51.462;14.346;2023-02-18T07:13:13;100215.06;;;6.42;83.20
29569;BME280;16501;51.462;14.346;2023-02-18T07:15:39;100236.91;;;6.56;83.49
29569;BME280;16501;51.462;14.346;2023-02-18T07:18:05;100239.69;;;6.56;83.09
29569;BME280;16501;51.462;14.346;2023-02-18T07:20:30;100243.28;;;6.57;83.67
29569;BME280;16501;51.462;14.346;2023-02-18T07:22:57;100249.94;;;6.59;84.78
29569;BME280;16501;51.462;14.346;2023-02-18T07:25:23;100243.59;;;6.59;84.86
29569;BME280;16501;51.462;14.346;2023-02-18T07:27:49;100249.50;;;6.61;85.51
29569;BME280;16501;51.462;14.346;2023-02-18T07:30:15;100235.69;;;6.45;86.91
29569;BME280;16501;51.462;14.346;2023-02-18T07:32:40;100234.38;;;6.62;88.54
29569;BME280;16501;51.462;14.346;2023-02-18T07:35:07;100203.16;;;6.41;89.78
29569;BME280;16501;51.462;14.346;2023-02-18T07:37:34;100231.69;;;6.58;91.56
29569;BME280;16501;51.462;14.346;2023-02-18T07:39:59;100215.06;;;6.42;93.57
29569;BME280;16501;51.462;14.346;2023-02-18T07:42:25;100216.50;;;6.34;97.67
29569;BME280;16501;51.462;14.346;2023-02-18T07:44:51;100224.69;;;6.41;100.00
29569;BME280;16501;51.462;14.346;2023-02-18T07:47:17;100229.88;;;6.26;100.00
29569;BME280;16501;51.462;14.346;2023-02-18T07:49:44;100234.13;;;6.31;100.00
29569;BME280;16501;51.462;14.346;2023-02-18T07:52:12;100231.66;;;6.20;100.00
29569;BME280;16501;51.462;14.346;2023-02-18T07:54:37;100233.56;;;6.23;100.00
29569;BME280;16501;51.462;14.346;2023-02-18T07:57:03;100222.53;;;6.19;100.00
29569;BME280;16501;51.462;14.346;2023-02-18T07:59:28;100235.09;;;6.11;100.00
29569;BME280;16501;51.462;14.346;2023-02-18T08:01:53;100167.66;;;5.78;100.00
29569;BME280;16501;51.462;14.346;2023-02-18T08:04:19;100214.50;;;6.09;100.00
29569;BME280;16501;51.462;14.346;2023-02-18T08:06:46;100222.53;;;6.19;100.00
29569;BME280;16501;51.462;14.346;2023-02-18T08:09:14;100226.44;;;6.22;100.00
29569;BME280;16501;51.462;14.346;2023-02-18T08:11:40;100210.94;;;6.08;100.00
29569;BME280;16501;51.462;14.346;2023-02-18T08:14:05;100188.34;;;6.06;100.00
29569;BME280;16501;51.462;14.346;2023-02-18T08:16:32;100217.28;;;6.21;100.00
29569;BME280;16501;51.462;14.346;2023-02-18T08:18:57;100185.19;;;6.04;100.00
29569;BME280;16501;51.462;14.346;2023-02-18T08:21:24;100207.50;;;6.17;100.00
29569;BME280;16501;51.462;14.346;2023-02-18T08:23:49;100179.41;;;5.98;100.00
29569;BME280;16501;51.462;14.346;2023-02-18T08:26:18;100170.91;;;5.89;100.00
29569;BME280;16501;51.462;14.346;2023-02-18T08:28:45;100204.81;;;6.13;100.00
29569;BME280;16501;51.462;14.346;2023-02-18T08:31:20;100193.91;;;6.06;100.00
29569;BME280;16501;51.462;14.346;2023-02-18T08:33:46;100197.78;;;6.09;100.00
29569;BME280;16501;51.462;14.346;2023-02-18T08:36:12;100180.13;;;5.86;100.00
29569;BME280;16501;51.462;14.346;2023-02-18T08:38:38;100116.66;;;5.55;100.00
29569;BME280;16501;51.462;14.346;2023-02-18T08:41:07;100195.66;;;6.00;100.00
29569;BME280;16501;51.462;14.346;2023-02-18T08:43:33;100197.25;;;6.01;100.00
29569;BME280;16501;51.462;14.346;2023-02-18T08:45:58;100178.19;;;5.99;100.00
29569;BME280;16501;51.462;14.346;2023-02-18T08:48:25;100180.75;;;6.07;100.00
29569;BME280;16501;51.462;14.346;2023-02-18T08:50:50;100171.97;;;6.08;100.00
29569;BME280;16501;51.462;14.346;2023-02-18T08:53:16;100176.50;;;6.02;100.00
29569;BME280;16501;51.462;14.346;2023-02-18T08:55:42;100172.81;;;5.92;100.00
29569;BME280;16501;51.462;14.346;2023-02-18T08:58:08;100177.84;;;5.97;100.00
29569;BME280;16501;51.462;14.346;2023-02-18T09:00:34;100152.31;;;5.86;100.00
29569;BME280;16501;51.462;14.346;2023-02-18T09:03:01;100152.00;;;5.97;100.00
29569;BME280;16501;51.462;14.346;2023-02-18T09:05:27;100144.28;;;5.88;100.00
29569;BME280;16501;51.462;14.346;2023-02-18T09:07:53;100161.16;;;6.10;100.00
29569;BME280;16501;51.462;14.346;2023-02-18T09:10:18;100122.38;;;5.90;100.00
29569;BME280;16501;51.462;14.346;2023-02-18T09:12:43;100148.03;;;6.11;100.00
29569;BME280;16501;51.462;14.346;2023-02-18T09:15:09;100146.13;;;6.08;100.00
29569;BME280;16501;51.462;14.346;2023-02-18T09:17:35;100108.72;;;5.96;100.00
29569;BME280;16501;51.462;14.346;2023-02-18T09:20:00;100068.47;;;5.71;100.00
29569;BME280;16501;51.462;14.346;2023-02-18T09:22:27;100099.66;;;5.92;100.00
29569;BME280;16501;51.462;14.346;2023-02-18T09:24:53;100124.66;;;6.08;100.00
29569;BME280;16501;51.462;14.346;2023-02-18T09:27:18;100120.97;;;5.98;100.00
29569;BME280;16501;51.462;14.346;2023-02-18T09:29:43;100105.47;;;5.97;100.00
29569;BME280;16501;51.462;14.346;2023-02-18T09:32:09;100115.84;;;6.10;100.00
29569;BME280;16501;51.462;14.346;2023-02-18T09:34:36;100112.03;;;6.16;100.00
29569;BME280;16501;51.462;14.346;2023-02-18T09:37:02;100101.47;;;6.11;100.00
29569;BME280;16501;51.462;14.346;2023-02-18T09:39:27;100092.56;;;6.16;100.00
29569;BME280;16501;51.462;14.346;2023-02-18T09:41:55;100056.72;;;5.93;100.00
29569;BME280;16501;51.462;14.346;2023-02-18T09:44:37;100091.00;;;6.15;100.00
29569;BME280;16501;51.462;14.346;2023-02-18T09:49:53;100060.75;;;6.04;100.00
29569;BME280;16501;51.462;14.346;2023-02-18T09:52:28;100044.00;;;5.92;100.00
29569;BME280;16501;51.462;14.346;2023-02-18T09:54:55;100042.16;;;6.01;100.00
29569;BME280;16501;51.462;14.346;2023-02-18T09:57:50;100049.25;;;6.02;100.00
29569;BME280;16501;51.462;14.346;2023-02-18T10:00:43;100034.00;;;6.07;100.00
29569;BME280;16501;51.462;14.346;2023-02-18T10:03:19;99992.81;;;5.76;100.00
29569;BME280;16501;51.462;14.346;2023-02-18T10:06:11;100024.56;;;6.04;100.00
29569;BME280;16501;51.462;14.346;2023-02-18T10:08:48;100023.44;;;6.02;100.00
29569;BME280;16501;51.462;14.346;2023-02-18T10:11:30;100021.63;;;5.95;100.00
29569;BME280;16501;51.462;14.346;2023-02-18T10:13:56;99994.91;;;5.85;100.00
29569;BME280;16501;51.462;14.346;2023-02-18T10:16:25;100003.19;;;6.01;100.00
29569;BME280;16501;51.462;14.346;2023-02-18T10:18:56;99992.25;;;6.07;100.00
29569;BME280;16501;51.462;14.346;2023-02-18T10:21:24;99988.59;;;6.10;100.00
29569;BME280;16501;51.462;14.346;2023-02-18T10:26:25;99959.84;;;6.13;100.00
29569;BME280;16501;51.462;14.346;2023-02-18T10:28:51;99954.63;;;6.02;100.00
29569;BME280;16501;51.462;14.346;2023-02-18T10:31:33;99955.75;;;6.05;100.00
29569;BME280;16501;51.462;14.346;2023-02-18T10:34:18;99952.97;;;6.05;100.00
29569;BME280;16501;51.462;14.346;2023-02-18T10:36:54;99949.63;;;6.10;100.00
29569;BME280;16501;51.462;14.346;2023-02-18T10:44:55;99916.22;;;6.10;100.00
29569;BME280;16501;51.462;14.346;2023-02-18T10:47:45;99903.06;;;6.11;100.00
29569;BME280;16501;51.462;14.346;2023-02-18T10:50:29;99912.78;;;6.06;100.00
29569;BME280;16501;51.462;14.346;2023-02-18T10:53:01;99898.88;;;6.06;100.00
29569;BME280;16501;51.462;14.346;2023-02-18T10:55:40;99891.59;;;6.09;100.00
29569;BME280;16501;51.462;14.346;2023-02-18T10:58:42;99876.78;;;6.12;100.00
29569;BME280;16501;51.462;14.346;2023-02-18T11:01:14;99881.13;;;6.13;100.00
29569;BME280;16501;51.462;14.346;2023-02-18T11:03:51;99884.03;;;6.09;100.00
29569;BME280;16501;51.462;14.346;2023-02-18T11:06:33;99845.00;;;6.00;100.00
29569;BME280;16501;51.462;14.346;2023-02-18T11:09:04;99846.22;;;6.21;100.00
29569;BME280;16501;51.462;14.346;2023-02-18T11:11:37;99831.13;;;6.09;100.00
29569;BME280;16501;51.462;14.346;2023-02-18T11:14:04;99839.75;;;6.24;100.00
29569;BME280;16501;51.462;14.346;2023-02-18T11:16:42;99777.31;;;5.90;100.00
29569;BME280;16501;51.462;14.346;2023-02-18T11:22:18;99822.34;;;6.33;100.00
29569;BME280;16501;51.462;14.346;2023-02-18T11:24:44;99797.28;;;6.33;100.00
29569;BME280;16501;51.462;14.346;2023-02-18T11:27:45;99799.03;;;6.39;100.00
29569;BME280;16501;51.462;14.346;2023-02-18T11:30:22;99798.56;;;6.41;100.00
29569;BME280;16501;51.462;14.346;2023-02-18T11:32:54;99731.88;;;6.06;100.00
29569;BME280;16501;51.462;14.346;2023-02-18T11:35:23;99738.78;;;6.23;100.00
29569;BME280;16501;51.462;14.346;2023-02-18T11:37:49;99773.09;;;6.52;100.00
29569;BME280;16501;51.462;14.346;2023-02-18T11:40:35;99768.75;;;6.51;100.00
29569;BME280;16501;51.462;14.346;2023-02-18T11:43:04;99751.91;;;6.54;100.00
29569;BME280;16501;51.462;14.346;2023-02-18T11:45:33;99748.34;;;6.54;100.00
29569;BME280;16501;51.462;14.346;2023-02-18T11:48:01;99747.16;;;6.64;100.00
29569;BME280;16501;51.462;14.346;2023-02-18T11:50:32;99739.41;;;6.68;100.00
29569;BME280;16501;51.462;14.346;2023-02-18T11:52:59;99712.00;;;6.67;100.00
29569;BME280;16501;51.462;14.346;2023-02-18T11:55:29;99723.81;;;6.80;100.00
29569;BME280;16501;51.462;14.346;2023-02-18T11:57:57;99726.03;;;6.94;100.00
29569;BME280;16501;51.462;14.346;2023-02-18T12:00:39;99682.97;;;6.86;100.00
29569;BME280;16501;51.462;14.346;2023-02-18T12:05:47;99690.47;;;7.35;100.00
29569;BME280;16501;51.462;14.346;2023-02-18T12:08:44;99678.06;;;7.46;100.00
29569;BME280;16501;51.462;14.346;2023-02-18T12:11:19;99676.50;;;7.54;100.00
29569;BME280;16501;51.462;14.346;2023-02-18T12:13:50;99665.50;;;7.60;100.00
29569;BME280;16501;51.462;14.346;2023-02-18T12:22:26;99668.22;;;7.97;100.00
29569;BME280;16501;51.462;14.346;2023-02-18T12:25:24;99661.41;;;7.98;100.00
29569;BME280;16501;51.462;14.346;2023-02-18T12:31:29;99644.78;;;8.03;100.00
29569;BME280;16501;51.462;14.346;2023-02-18T12:34:42;99648.13;;;8.17;100.00
29569;BME280;16501;51.462;14.346;2023-02-18T12:42:51;99643.69;;;8.34;100.00
29569;BME280;16501;51.462;14.346;2023-02-18T12:45:30;99623.72;;;8.26;100.00
29569;BME280;16501;51.462;14.346;2023-02-18T12:48:18;99628.47;;;8.44;100.00
29569;BME280;16501;51.462;14.346;2023-02-18T12:54:32;99626.94;;;8.43;100.00
29569;BME280;16501;51.462;14.346;2023-02-18T12:57:18;99620.72;;;8.48;100.00
29569;BME280;16501;51.462;14.346;2023-02-18T13:02:53;99626.41;;;8.54;100.00
29569;BME280;16501;51.462;14.346;2023-02-18T13:05:50;99608.41;;;8.55;100.00
29569;BME280;16501;51.462;14.346;2023-02-18T13:11:05;99610.41;;;8.55;100.00
29569;BME280;16501;51.462;14.346;2023-02-18T13:13:42;99587.69;;;8.38;100.00
29569;BME280;16501;51.462;14.346;2023-02-18T13:16:15;99613.69;;;8.53;100.00
29569;BME280;16501;51.462;14.346;2023-02-18T13:18:46;99597.88;;;8.50;100.00
29569;BME280;16501;51.462;14.346;2023-02-18T13:21:16;99541.69;;;8.24;100.00
29569;BME280;16501;51.462;14.346;2023-02-18T13:23:54;99611.72;;;8.68;100.00
29569;BME280;16501;51.462;14.346;2023-02-18T13:26:21;99591.66;;;8.55;100.00
29569;BME280;16501;51.462;14.346;2023-02-18T13:29:07;99581.22;;;8.56;100.00
29569;BME280;16501;51.462;14.346;2023-02-18T13:39:54;99591.75;;;8.61;100.00
29569;BME280;16501;51.462;14.346;2023-02-18T13:47:38;99603.69;;;8.61;100.00
29569;BME280;16501;51.462;14.346;2023-02-18T13:52:51;99607.25;;;8.38;100.00
29569;BME280;16501;51.462;14.346;2023-02-18T13:55:25;99617.75;;;8.52;100.00
29569;BME280;16501;51.462;14.346;2023-02-18T13:57:53;99611.53;;;8.48;100.00
29569;BME280;16501;51.462;14.346;2023-02-18T14:00:21;99598.69;;;8.41;100.00
29569;BME280;16501;51.462;14.346;2023-02-18T14:02:56;99585.38;;;8.36;100.00
29569;BME280;16501;51.462;14.346;2023-02-18T14:05:24;99616.47;;;8.53;100.00
29569;BME280;16501;51.462;14.346;2023-02-18T14:08:28;99602.13;;;8.36;100.00
29569;BME280;16501;51.462;14.346;2023-02-18T14:13:54;99627.34;;;8.51;100.00
29569;BME280;16501;51.462;14.346;2023-02-18T14:16:19;99626.88;;;8.53;100.00
29569;BME280;16501;51.462;14.346;2023-02-18T14:28:42;99621.28;;;8.53;100.00
29569;BME280;16501;51.462;14.346;2023-02-18T14:34:00;99629.09;;;8.48;100.00
29569;BME280;16501;51.462;14.346;2023-02-18T14:36:40;99628.63;;;8.50;100.00
29569;BME280;16501;51.462;14.346;2023-02-18T14:39:24;99635.16;;;8.47;100.00
29569;BME280;16501;51.462;14.346;2023-02-18T14:42:15;99634.69;;;8.48;100.00
29569;BME280;16501;51.462;14.346;2023-02-18T14:47:38;99633.75;;;8.42;100.00